Time;durP1;ratioP1;P1;durP2;ratioP2;P2;SDS_P1;SDS_P2;PMS_P1;PMS_P2;Temp;Humidity;BMP_temperature;BMP_pressure;BME280_temperature;BME280_humidity;BME280_pressure;Samples;Min_cycle;Max_cycle;Signal;HPM_P1;HPM_P2
2021/09/15 00:02:09;;;;;;;6.97;5.57;;;;;;;;;;6232352;28;20028;-82
2021/09/15 00:05:10;;;;;;;6.63;5.65;;;19.00;99.90;;;;;;6270714;28;20104;-82
2021/09/15 00:08:11;;;;;;;9.23;5.78;;;;;;;;;;6252539;28;20082;-83
2021/09/15 00:11:13;;;;;;;9.40;6.40;;;19.10;99.90;;;;;;6252231;28;20031;-83
2021/09/15 00:14:14;;;;;;;8.73;6.40;;;;;;;;;;6252244;28;20021;-83
2021/09/15 00:17:15;;;;;;;8.80;6.57;;;;;;;;;;6269894;28;20024;-83
2021/09/15 00:20:15;;;;;;;8.95;6.10;;;19.00;99.90;;;;;;6245110;28;20029;-82
2021/09/15 00:23:16;;;;;;;7.55;6.00;;;18.90;99.90;;;;;;6218364;28;20029;-82
2021/09/15 00:26:17;;;;;;;10.57;6.90;;;;;;;;;;6235110;28;20443;-82
2021/09/15 00:29:17;;;;;;;10.45;6.50;;;18.90;99.90;;;;;;6251524;28;20029;-81
2021/09/15 00:32:18;;;;;;;7.95;6.70;;;18.80;99.90;;;;;;6234889;28;20021;-81
2021/09/15 00:35:19;;;;;;;11.75;7.20;;;;;;;;;;6251153;28;20382;-82
2021/09/15 00:38:20;;;;;;;9.27;7.00;;;18.80;99.90;;;;;;6251711;28;20039;-81
2021/09/15 00:41:20;;;;;;;8.70;6.85;;;18.60;99.90;;;;;;6250687;28;20057;-81
2021/09/15 00:44:21;;;;;;;8.70;7.10;;;18.70;99.90;;;;;;6234641;28;20403;-81
2021/09/15 00:47:21;;;;;;;10.52;6.90;;;18.70;99.90;;;;;;6250451;28;20064;-84
2021/09/15 00:50:22;;;;;;;9.55;7.18;;;18.80;99.90;;;;;;6218124;28;20356;-84
2021/09/15 00:53:23;;;;;;;8.77;6.43;;;;;;;;;;6218160;28;20068;-84
2021/09/15 00:56:24;;;;;;;7.90;6.68;;;;;;;;;;6234606;28;20029;-85
2021/09/15 00:59:25;;;;;;;8.85;6.80;;;18.50;99.90;;;;;;6234523;28;20029;-84
2021/09/15 01:02:27;;;;;;;7.72;6.65;;;18.70;99.90;;;;;;6210568;28;20033;-85
2021/09/15 01:05:28;;;;;;;9.85;6.80;;;;;;;;;;6218315;28;20071;-85
2021/09/15 01:08:28;;;;;;;7.00;6.30;;;18.50;99.90;;;;;;6233761;28;20017;-84
2021/09/15 01:11:29;;;;;;;8.88;6.03;;;19.10;99.90;;;;;;6251093;28;20033;-84
2021/09/15 01:14:29;;;;;;;7.40;5.75;;;18.60;99.90;;;;;;6217518;28;20029;-85
2021/09/15 01:17:30;;;;;;;8.43;6.05;;;;;;;;;;6242765;28;20021;-85
2021/09/15 01:20:37;;;;;;;8.73;5.80;;;18.60;99.90;;;;;;6227303;28;20524;-84
2021/09/15 01:23:37;;;;;;;8.55;5.82;;;18.50;99.90;;;;;;6234607;28;20392;-84
2021/09/15 01:26:38;;;;;;;7.10;5.80;;;;;;;;;;6210806;28;20025;-84
2021/09/15 01:29:39;;;;;;;12.27;6.78;;;18.40;99.90;;;;;;6249956;28;20033;-83
2021/09/15 01:32:40;;;;;;;7.82;5.60;;;;;;;;;;6234140;28;20040;-84
2021/09/15 01:35:41;;;;;;;11.85;5.97;;;;;;;;;;6249157;28;20115;-84
2021/09/15 01:38:42;;;;;;;6.22;5.55;;;;;;;;;;6234020;28;20037;-84
2021/09/15 01:41:43;;;;;;;7.63;6.45;;;;;;;;;;6246911;28;20017;-84
2021/09/15 01:44:45;;;;;;;9.02;6.47;;;18.50;99.90;;;;;;6250562;28;20032;-82
2021/09/15 01:47:46;;;;;;;10.20;6.65;;;18.60;99.90;;;;;;6221959;28;20049;-82
2021/09/15 01:50:46;;;;;;;8.48;6.25;;;18.60;99.90;;;;;;6249158;28;20037;-82
2021/09/15 01:53:47;;;;;;;8.27;6.55;;;18.40;99.90;;;;;;6233049;28;20481;-82
2021/09/15 01:56:47;;;;;;;13.57;6.90;;;18.40;99.90;;;;;;6217032;28;20021;-82
2021/09/15 01:59:48;;;;;;;8.20;6.18;;;;;;;;;;6227598;28;20045;-82
2021/09/15 02:02:49;;;;;;;9.73;6.45;;;18.40;99.90;;;;;;6229447;28;20049;-82
2021/09/15 02:05:50;;;;;;;7.57;6.53;;;18.30;99.90;;;;;;6209370;28;20021;-82
2021/09/15 02:08:51;;;;;;;6.95;6.18;;;;;;;;;;6212287;28;20038;-82
2021/09/15 02:11:51;;;;;;;7.05;6.35;;;18.30;99.90;;;;;;6230537;28;20057;-83
2021/09/15 02:14:52;;;;;;;7.15;6.28;;;18.40;99.90;;;;;;6209511;28;20351;-82
2021/09/15 02:17:53;;;;;;;10.02;6.95;;;;;;;;;;6225903;28;20025;-82
2021/09/15 02:20:53;;;;;;;10.05;6.88;;;18.30;99.90;;;;;;6232549;28;20055;-82
2021/09/15 02:23:55;;;;;;;9.35;6.57;;;18.30;99.90;;;;;;6209565;28;20426;-82
2021/09/15 02:26:56;;;;;;;9.45;6.45;;;18.40;99.90;;;;;;6217308;28;20105;-82
2021/09/15 02:29:57;;;;;;;6.65;5.55;;;;;;;;;;6216440;28;20511;-82
2021/09/15 02:32:58;;;;;;;11.75;6.35;;;18.40;99.90;;;;;;6249604;28;20074;-82
2021/09/15 02:35:58;;;;;;;9.10;6.30;;;18.20;99.90;;;;;;6249092;28;20017;-83
2021/09/15 02:38:59;;;;;;;6.93;5.43;;;;;;;;;;6229880;28;20059;-82
2021/09/15 02:42:00;;;;;;;8.68;6.05;;;18.30;99.90;;;;;;6249297;28;20475;-83
2021/09/15 02:45:01;;;;;;;10.32;6.55;;;18.30;99.90;;;;;;6249190;28;20033;-83
2021/09/15 02:48:01;;;;;;;8.65;6.18;;;18.30;99.90;;;;;;6216090;28;20045;-82
2021/09/15 02:51:02;;;;;;;7.13;5.97;;;;;;;;;;6209476;28;20418;-82
2021/09/15 02:54:03;;;;;;;10.30;6.78;;;18.20;99.90;;;;;;6225957;28;20027;-82
2021/09/15 02:57:03;;;;;;;9.85;6.45;;;18.30;99.90;;;;;;6232663;28;20056;-82
2021/09/15 03:00:05;;;;;;;8.25;6.82;;;18.40;99.90;;;;;;6214648;28;20451;-82
2021/09/15 03:03:06;;;;;;;8.77;6.45;;;;;;;;;;6233630;28;20036;-82
2021/09/15 03:06:07;;;;;;;9.00;6.38;;;18.10;99.90;;;;;;6253784;28;20094;-82
2021/09/15 03:09:07;;;;;;;10.40;5.95;;;;;;;;;;6253332;28;20037;-83
2021/09/15 03:12:08;;;;;;;7.45;6.00;;;;;;;;;;6252909;28;20108;-83
2021/09/15 03:15:09;;;;;;;10.23;6.45;;;18.20;99.90;;;;;;6253272;28;20021;-85
2021/09/15 03:18:10;;;;;;;7.35;6.07;;;18.50;99.90;;;;;;6236936;28;20071;-85
2021/09/15 03:21:11;;;;;;;7.53;6.75;;;18.70;99.90;;;;;;6253588;28;20512;-84
2021/09/15 03:24:12;;;;;;;7.40;6.07;;;18.10;99.90;;;;;;6216679;28;20029;-82
2021/09/15 03:27:12;;;;;;;8.57;6.93;;;18.40;99.90;;;;;;6230337;28;20021;-82
2021/09/15 03:30:13;;;;;;;8.43;7.03;;;18.00;99.90;;;;;;6236417;28;20048;-82
2021/09/15 03:33:14;;;;;;;9.85;6.95;;;18.10;99.90;;;;;;6220464;28;20025;-82
2021/09/15 03:36:14;;;;;;;14.18;7.30;;;18.70;99.90;;;;;;6236298;28;20061;-81
2021/09/15 03:39:15;;;;;;;11.60;6.95;;;18.30;99.90;;;;;;6232032;28;20045;-81
2021/09/15 03:42:16;;;;;;;7.85;6.75;;;18.10;99.90;;;;;;6220092;28;20129;-81
2021/09/15 03:45:16;;;;;;;10.30;6.93;;;18.30;99.90;;;;;;6270813;28;20025;-82
2021/09/15 03:48:17;;;;;;;8.35;6.32;;;18.10;99.90;;;;;;6235913;28;20156;-82
2021/09/15 03:51:17;;;;;;;10.35;6.82;;;18.10;99.90;;;;;;6196595;28;20090;-82
2021/09/15 03:54:18;;;;;;;8.52;7.22;;;18.00;99.90;;;;;;6212445;28;20030;-82
2021/09/15 03:57:19;;;;;;;9.32;6.75;;;18.10;99.90;;;;;;6228822;28;20152;-82
2021/09/15 04:00:20;;;;;;;12.55;6.93;;;;;;;;;;6196121;28;20022;-82
2021/09/15 04:03:20;;;;;;;6.90;6.20;;;18.00;99.90;;;;;;6270014;28;20055;-81
2021/09/15 04:06:21;;;;;;;8.63;6.32;;;18.10;99.90;;;;;;6236355;28;20091;-82
2021/09/15 04:09:22;;;;;;;9.07;6.82;;;18.00;99.90;;;;;;6252428;28;20032;-81
2021/09/15 04:12:23;;;;;;;8.75;6.82;;;;;;;;;;6212280;28;20368;-81
2021/09/15 04:15:23;;;;;;;7.40;6.57;;;18.00;99.90;;;;;;6251530;28;20120;-82
2021/09/15 04:18:24;;;;;;;7.68;6.88;;;18.00;99.90;;;;;;6235478;28;20029;-81
2021/09/15 04:21:25;;;;;;;9.68;6.95;;;;;;;;;;6232419;28;20367;-82
2021/09/15 04:34:10;;;;;;;9.05;7.60;;;18.00;99.90;;;;;;6229815;28;20022;-84
2021/09/15 04:37:10;;;;;;;11.30;7.13;;;18.00;99.90;;;;;;6219708;28;20067;-81
2021/09/15 04:40:12;;;;;;;8.23;7.28;;;17.80;99.90;;;;;;6215613;28;20447;-82
2021/09/15 04:43:12;;;;;;;11.20;7.95;;;18.10;99.90;;;;;;6226962;28;20021;-80
2021/09/15 04:46:13;;;;;;;8.88;7.30;;;;;;;;;;6235653;28;20095;-80
2021/09/15 04:49:14;;;;;;;8.82;7.90;;;18.00;99.90;;;;;;6227773;28;20049;-78
2021/09/15 04:52:15;;;;;;;7.68;6.85;;;18.00;99.90;;;;;;6251198;28;20076;-78
2021/09/15 04:55:15;;;;;;;7.63;6.63;;;18.20;99.90;;;;;;6224911;28;20471;-80
2021/09/15 04:58:16;;;;;;;9.40;7.07;;;18.00;99.90;;;;;;6232273;28;20026;-80
2021/09/15 05:01:16;;;;;;;9.35;7.18;;;17.90;99.90;;;;;;6232445;28;20451;-79
2021/09/15 05:04:17;;;;;;;9.38;7.22;;;18.00;99.90;;;;;;6229063;28;20048;-82
2021/09/15 05:07:20;;;;;;;8.63;7.15;;;;;;;;;;6207335;28;20037;-90
2021/09/15 05:10:25;;;;;;;9.00;7.22;;;;;;;;;;6228458;28;20052;-87
2021/09/15 05:13:25;;;;;;;8.38;7.13;;;18.20;99.90;;;;;;6229337;28;20121;-79
2021/09/15 05:16:26;;;;;;;9.40;7.28;;;18.10;99.90;;;;;;6226475;28;20063;-78
2021/09/15 05:19:26;;;;;;;11.20;7.88;;;18.10;99.90;;;;;;6259776;28;20048;-79
2021/09/15 05:22:27;;;;;;;10.05;7.60;;;16.60;99.90;;;;;;6227549;28;20456;-80
2021/09/15 05:25:28;;;;;;;9.40;7.50;;;18.30;99.90;;;;;;6253156;28;20539;-79
2021/09/15 05:28:28;;;;;;;9.95;7.32;;;18.20;99.90;;;;;;6220768;28;20039;-79
2021/09/15 05:31:29;;;;;;;11.07;7.40;;;18.10;99.90;;;;;;6250183;28;20446;-78
2021/09/15 05:34:30;;;;;;;7.45;6.35;;;18.10;99.90;;;;;;6261072;28;20053;-78
2021/09/15 05:37:31;;;;;;;9.80;7.22;;;;;;;;;;6247210;28;20039;-81
2021/09/15 05:40:32;;;;;;;9.93;7.40;;;;;;;;;;6238791;28;20017;-81
2021/09/15 05:43:34;;;;;;;9.02;7.18;;;;;;;;;;6242197;28;20040;-81
2021/09/15 05:46:35;;;;;;;14.25;8.52;;;;;;;;;;6267124;28;20045;-80
2021/09/15 05:49:35;;;;;;;9.95;6.72;;;;;;;;;;6253491;28;20426;-80
2021/09/15 05:52:36;;;;;;;9.18;7.53;;;;;;;;;;6250334;28;20025;-83
2021/09/15 05:55:37;;;;;;;9.60;7.75;;;;;;;;;;6226938;28;20029;-83
2021/09/15 05:58:38;;;;;;;7.57;6.85;;;;;;;;;;6225900;28;20077;-82
2021/09/15 06:01:39;;;;;;;9.85;7.50;;;18.20;99.90;;;;;;6259894;28;20482;-79
2021/09/15 06:04:40;;;;;;;11.07;8.70;;;18.20;99.90;;;;;;6227243;28;20490;-79
2021/09/15 06:07:40;;;;;;;9.02;7.95;;;18.10;99.90;;;;;;6235849;28;20060;-79
2021/09/15 06:10:41;;;;;;;10.45;8.00;;;18.40;99.90;;;;;;6228754;28;20041;-79
2021/09/15 06:13:41;;;;;;;8.93;8.02;;;18.40;99.90;;;;;;6242673;28;20032;-79
2021/09/15 06:16:42;;;;;;;11.57;7.65;;;18.40;99.90;;;;;;6265562;28;20371;-79
2021/09/15 06:19:43;;;;;;;7.70;6.82;;;;;;;;;;6265321;28;20029;-80
2021/09/15 06:22:44;;;;;;;7.82;6.28;;;18.30;99.90;;;;;;6250750;28;20137;-80
2021/09/15 06:25:44;;;;;;;11.70;7.88;;;18.30;99.90;;;;;;6226159;28;20025;-80
2021/09/15 06:28:45;;;;;;;9.60;6.40;;;18.30;99.90;;;;;;6233923;28;20597;-80
2021/09/15 06:31:45;;;;;;;8.55;5.78;;;18.40;99.90;;;;;;6233378;28;20078;-80
2021/09/15 06:34:49;;;;;;;8.77;6.45;;;18.30;99.90;;;;;;6227025;28;20495;-79
2021/09/15 06:37:50;;;;;;;6.95;5.72;;;18.40;99.90;;;;;;6237361;28;20037;-80
2021/09/15 06:40:51;;;;;;;7.32;6.15;;;;;;;;;;6245094;28;20029;-83
2021/09/15 06:43:52;;;;;;;10.00;6.95;;;18.50;99.90;;;;;;6235108;28;20021;-87
2021/09/15 06:46:56;;;;;;;10.52;7.72;;;;;;;;;;6229811;28;20074;-86
2021/09/15 06:49:56;;;;;;;10.10;7.50;;;18.50;99.90;;;;;;6236463;28;20600;-85
2021/09/15 06:52:57;;;;;;;8.73;7.25;;;;;;;;;;6216580;28;20037;-85
2021/09/15 06:55:58;;;;;;;8.52;7.53;;;18.40;99.90;;;;;;6237476;28;20013;-85
2021/09/15 06:58:59;;;;;;;11.55;8.15;;;;;;;;;;6230623;28;20473;-86
2021/09/15 07:02:00;;;;;;;11.10;7.95;;;;;;;;;;6230932;28;20083;-85
2021/09/15 07:05:00;;;;;;;10.23;7.63;;;18.20;99.90;;;;;;6233206;28;20026;-85
2021/09/15 07:08:08;;;;;;;13.43;8.15;;;18.10;99.90;;;;;;6226740;28;20079;-91
2021/09/15 07:11:08;;;;;;;8.63;6.85;;;18.00;99.90;;;;;;6216596;28;20094;-87
2021/09/15 07:14:09;;;;;;;8.60;6.55;;;18.20;99.90;;;;;;6219504;28;20033;-88
2021/09/15 07:17:09;;;;;;;8.40;6.32;;;18.10;99.90;;;;;;6224657;28;20607;-87
2021/09/15 07:20:12;;;;;;;8.90;6.30;;;18.20;99.90;;;;;;6215052;28;20025;-87
2021/09/15 07:23:12;;;;;;;;;;;18.20;99.90;;;;;;6229305;28;20073;-89
2021/09/15 07:26:13;;;;;;;7.53;6.25;;;18.30;99.90;;;;;;6239034;28;19908;-88
2021/09/15 07:29:14;;;;;;;9.88;6.25;;;18.20;99.90;;;;;;6209355;28;20463;-87
2021/09/15 07:32:22;;;;;;;7.10;6.03;;;18.10;99.90;;;;;;6221207;28;20037;-86
2021/09/15 07:35:23;;;;;;;8.35;6.40;;;18.20;99.90;;;;;;6226005;28;20063;-86
2021/09/15 07:38:24;;;;;;;7.38;6.03;;;;;;;;;;6231547;28;20040;-86
2021/09/15 07:41:25;;;;;;;7.63;6.20;;;;;;;;;;6228866;28;20040;-86
2021/09/15 07:44:26;;;;;;;7.35;6.05;;;;;;;;;;6236179;28;20039;-86
2021/09/15 07:47:27;;;;;;;8.48;6.03;;;18.20;99.90;;;;;;6235818;28;20061;-87
2021/09/15 07:50:27;;;;;;;8.25;5.65;;;18.20;99.90;;;;;;6232640;28;20029;-88
2021/09/15 07:53:28;;;;;;;7.90;5.95;;;19.00;99.90;;;;;;6213726;28;20032;-87
2021/09/15 07:56:28;;;;;;;8.45;6.20;;;18.20;99.90;;;;;;6207845;28;20017;-86
2021/09/15 07:59:29;;;;;;;6.60;5.75;;;;;;;;;;6220065;28;20106;-87
2021/09/15 08:02:30;;;;;;;10.95;6.95;;;;;;;;;;6234307;28;20131;-86
2021/09/15 08:05:31;;;;;;;7.13;6.03;;;18.30;99.90;;;;;;6245549;28;20025;-87
2021/09/15 08:08:33;;;;;;;6.55;5.82;;;;;;;;;;6212514;28;20030;-90
2021/09/15 08:11:34;;;;;;;9.33;6.40;;;;;;;;;;6235648;28;20459;-87
2021/09/15 08:14:35;;;;;;;8.13;6.03;;;;;;;;;;6242349;28;20271;-89
2021/09/15 08:17:38;;;;;;;6.70;6.00;;;;;;;;;;6230345;28;20033;-87
2021/09/15 08:20:39;;;;;;;8.10;6.72;;;18.60;99.90;;;;;;6249968;28;20036;-88
2021/09/15 08:23:40;;;;;;;7.10;6.30;;;18.50;99.90;;;;;;6218013;28;20029;-89
2021/09/15 08:26:41;;;;;;;6.80;6.05;;;;;;;;;;6214679;28;20452;-89
2021/09/15 08:29:42;;;;;;;9.52;6.70;;;;;;;;;;6232264;28;20032;-89
2021/09/15 08:32:43;;;;;;;7.00;6.30;;;;;;;;;;6232146;28;20021;-86
2021/09/15 08:35:43;;;;;;;6.95;5.97;;;18.80;99.90;;;;;;6229437;28;20364;-87
2021/09/15 08:38:44;;;;;;;7.25;6.53;;;;;;;;;;6214384;28;20049;-88
2021/09/15 08:41:48;;;;;;;8.48;6.18;;;;;;;;;;6228600;28;20017;-88
2021/09/15 08:44:49;;;;;;;6.95;6.25;;;19.20;99.90;;;;;;6251411;28;20024;-87
2021/09/15 08:47:50;;;;;;;8.77;6.28;;;;;;;;;;6202262;28;20057;-87
2021/09/15 08:50:51;;;;;;;8.55;6.20;;;;;;;;;;6221467;28;20064;-88
2021/09/15 08:53:52;;;;;;;11.23;7.10;;;;;;;;;;6230264;28;20025;-87
2021/09/15 08:56:53;;;;;;;8.60;6.60;;;;;;;;;;6234350;28;20064;-87
2021/09/15 08:59:54;;;;;;;8.70;6.85;;;;;;;;;;6222400;28;20017;-88
2021/09/15 09:02:55;;;;;;;7.13;5.80;;;;;;;;;;6232909;28;20036;-87
2021/09/15 09:06:06;;;;;;;7.80;6.05;;;19.60;99.90;;;;;;6230201;28;20045;-87
2021/09/15 09:09:07;;;;;;;10.57;6.03;;;19.80;99.90;;;;;;6203714;28;20029;-88
2021/09/15 09:12:09;;;;;;;7.85;5.30;;;;;;;;;;6218016;28;20051;-89
2021/09/15 09:15:22;;;;;;;8.20;5.85;;;19.70;99.90;;;;;;6251349;28;20796;-88
2021/09/15 09:18:23;;;;;;;13.30;8.32;;;19.80;99.90;;;;;;6217660;28;20029;-87
2021/09/15 09:21:28;;;;;;;5.80;5.20;;;19.80;99.90;;;;;;6206252;28;20037;-85
2021/09/15 09:24:28;;;;;;;7.72;5.20;;;19.70;99.90;;;;;;6215565;28;20026;-87
2021/09/15 09:27:31;;;;;;;6.47;5.13;;;;;;;;;;6233950;28;20082;-86
2021/09/15 09:30:34;;;;;;;6.43;4.90;;;19.60;99.90;;;;;;6222838;28;20482;-86
2021/09/15 09:33:34;;;;;;;5.45;4.88;;;19.50;99.90;;;;;;6221229;28;20170;-86
2021/09/15 09:36:35;;;;;;;7.00;4.90;;;;;;;;;;6209387;28;20037;-87
2021/09/15 09:39:38;;;;;;;7.65;4.45;;;19.70;99.90;;;;;;6233285;28;20490;-87
2021/09/15 09:42:40;;;;;;;6.70;4.45;;;;;;;;;;6213406;28;20040;-87
2021/09/15 09:45:46;;;;;;;6.22;5.63;;;19.70;99.90;;;;;;6238641;28;20375;-88
2021/09/15 09:48:49;;;;;;;9.48;5.68;;;19.60;99.90;;;;;;6204613;28;20415;-87
2021/09/15 09:51:50;;;;;;;5.70;4.60;;;19.70;99.90;;;;;;6199000;28;20033;-88
2021/09/15 09:55:00;;;;;;;6.82;4.65;;;19.90;99.90;;;;;;6216046;28;20090;-86
2021/09/15 09:58:05;;;;;;;5.88;4.53;;;19.30;99.90;;;;;;6210386;28;20040;-86
2021/09/15 10:01:06;;;;;;;5.32;4.75;;;19.20;99.90;;;;;;6229905;28;20021;-86
2021/09/15 10:04:07;;;;;;;5.20;4.70;;;;;;;;;;6215922;28;20463;-86
2021/09/15 10:07:08;;;;;;;6.13;4.90;;;;;;;;;;6234072;28;20044;-87
2021/09/15 10:10:12;;;;;;;5.93;4.65;;;19.20;99.90;;;;;;6249303;28;20041;-86
2021/09/15 10:13:13;;;;;;;6.28;5.45;;;19.10;99.90;;;;;;6231522;28;20111;-86
2021/09/15 10:16:15;;;;;;;6.25;4.85;;;;;;;;;;6216649;28;20120;-87
2021/09/15 10:19:16;;;;;;;6.80;5.33;;;19.70;99.90;;;;;;6246105;28;20129;-86
2021/09/15 10:22:17;;;;;;;6.30;4.50;;;;;;;;;;6216729;28;20447;-86
2021/09/15 10:25:21;;;;;;;6.63;4.75;;;;;;;;;;6244723;28;20025;-87
2021/09/15 10:28:21;;;;;;;6.00;5.20;;;19.00;99.90;;;;;;6232022;28;20467;-86
2021/09/15 10:31:59;;;;;;;7.68;5.72;;;19.10;99.90;;;;;;6196905;28;20047;-87
2021/09/15 10:35:01;;;;;;;7.45;5.70;;;19.10;99.90;;;;;;6249000;28;20025;-87
2021/09/15 10:38:02;;;;;;;9.68;5.47;;;18.80;99.90;;;;;;6225447;28;20037;-87
2021/09/15 10:41:21;;;;;;;7.13;5.18;;;19.00;99.90;;;;;;6195867;28;20499;-87
2021/09/15 10:44:34;;;;;;;6.82;5.28;;;19.20;99.90;;;;;;6213576;28;20446;-90
2021/09/15 10:47:44;;;;;;;8.55;6.00;;;21.10;99.90;;;;;;6228627;28;20045;-86
2021/09/15 10:50:45;;;;;;;5.60;4.97;;;19.40;99.90;;;;;;6217241;28;20142;-86
2021/09/15 10:53:46;;;;;;;5.78;4.80;;;19.70;99.90;;;;;;6255202;28;20033;-87
2021/09/15 10:56:47;;;;;;;8.35;5.80;;;;;;;;;;6227965;28;20116;-86
2021/09/15 10:59:48;;;;;;;5.43;4.93;;;;;;;;;;6224867;28;20033;-86
2021/09/15 11:02:49;;;;;;;5.75;4.85;;;;;;;;;;6239086;28;20017;-86
2021/09/15 11:05:50;;;;;;;9.05;5.32;;;;;;;;;;6218087;28;20531;-86
2021/09/15 11:08:51;;;;;;;5.60;4.50;;;;;;;;;;6230657;28;20421;-87
2021/09/15 11:11:53;;;;;;;5.60;4.53;;;;;;;;;;6232450;28;20106;-87
2021/09/15 11:14:57;;;;;;;7.30;4.78;;;;;;;;;;6243545;28;20187;-86
2021/09/15 11:17:58;;;;;;;6.45;4.70;;;20.20;99.90;;;;;;6230754;28;20405;-87
2021/09/15 11:21:02;;;;;;;6.63;5.10;;;20.20;99.90;;;;;;6240644;28;20038;-86
2021/09/15 11:24:23;;;;;;;6.97;4.72;;;20.10;99.90;;;;;;6215717;28;20430;-87
2021/09/15 11:27:24;;;;;;;5.30;4.80;;;;;;;;;;6233772;28;20025;-87
2021/09/15 11:30:25;;;;;;;6.55;4.38;;;;;;;;;;6236664;28;20659;-86
2021/09/15 11:33:27;;;;;;;8.52;4.88;;;19.90;99.90;;;;;;6236549;28;20036;-86
2021/09/15 11:36:28;;;;;;;7.75;4.65;;;;;;;;;;6246776;28;20021;-87
2021/09/15 11:40:09;;;;;;;6.38;5.05;;;19.70;99.90;;;;;;6227119;28;20025;-87
2021/09/15 11:43:13;;;;;;;6.45;5.00;;;;;;;;;;6248989;28;20392;-87
2021/09/15 11:46:14;;;;;;;5.28;4.78;;;;;;;;;;6235634;28;20033;-88
2021/09/15 11:49:15;;;;;;;5.28;4.78;;;20.10;99.90;;;;;;6243767;28;20044;-88
2021/09/15 11:52:16;;;;;;;9.57;5.10;;;;;;;;;;6200843;28;20087;-87
2021/09/15 11:55:17;;;;;;;7.82;5.72;;;;;;;;;;6234372;28;20374;-88
2021/09/15 11:58:20;;;;;;;9.55;5.60;;;;;;;;;;6234559;28;20047;-88
2021/09/15 12:01:20;;;;;;;;;;;21.00;99.90;;;;;;6235495;28;20120;-88
2021/09/15 12:04:22;;;;;;;7.75;4.90;;;;;;;;;;6237342;28;20374;-88
2021/09/15 12:10:46;;;;;;;5.28;4.75;;;21.20;99.90;;;;;;6213947;28;20066;-88
2021/09/15 12:14:39;;;;;;;6.18;5.55;;;21.30;99.90;;;;;;6200839;28;20064;-90
2021/09/15 12:17:40;;;;;;;6.38;5.10;;;;;;;;;;6208092;28;20156;-89
2021/09/15 12:20:47;;;;;;;7.15;5.10;;;21.40;99.90;;;;;;6201163;28;20174;-89
2021/09/15 12:23:51;;;;;;;5.90;4.97;;;;;;;;;;6200222;28;20055;-91
2021/09/15 12:26:55;;;;;;;7.40;4.97;;;;;;;;;;6202298;28;20033;-89
2021/09/15 12:30:00;;;;;;;6.05;4.63;;;21.40;99.90;;;;;;6200925;28;20050;-89
2021/09/15 12:33:01;;;;;;;5.70;4.85;;;21.60;99.90;;;;;;6201723;28;20048;-89
2021/09/15 12:36:12;;;;;;;7.15;4.82;;;21.80;99.90;;;;;;6185526;28;20065;-88
2021/09/15 12:39:16;;;;;;;5.88;4.13;;;22.10;99.90;;;;;;6210400;28;20491;-90
2021/09/15 12:42:18;;;;;;;5.03;4.03;;;22.60;99.90;;;;;;6211489;28;20580;-90
2021/09/15 12:45:19;;;;;;;;;;;22.60;99.90;;;;;;6216095;28;20116;-89
2021/09/15 12:48:20;;;;;;;6.57;4.75;;;;;;;;;;6241209;28;19987;-90
2021/09/15 12:51:21;;;;;;;5.57;4.60;;;22.70;99.90;;;;;;6232042;28;20072;-89
2021/09/15 12:54:34;;;;;;;6.93;4.55;;;22.30;99.90;;;;;;6217205;28;20044;-87
2021/09/15 12:57:47;;;;;;;6.28;4.20;;;22.10;99.90;;;;;;6218539;28;20465;-89
2021/09/15 13:00:47;;;;;;;;;;;25.10;99.90;;;;;;6231389;28;20033;-89
2021/09/15 13:03:55;;;;;;;5.35;4.32;;;;;;;;;;6239232;28;20374;-88
2021/09/15 13:06:58;;;;;;;6.97;4.43;;;;;;;;;;6226657;28;20029;-89
2021/09/15 13:09:59;;;;;;;8.25;5.18;;;;;;;;;;6233495;28;20107;-88
2021/09/15 13:13:06;;;;;;;5.68;4.95;;;21.20;99.90;;;;;;6226926;28;20032;-89
2021/09/15 13:16:07;;;;;;;4.72;4.22;;;;;;;;;;6213071;28;20104;-89
2021/09/15 13:19:11;;;;;;;5.00;4.50;;;;;;;;;;6231865;28;20471;-88
2021/09/15 13:22:12;;;;;;;6.70;5.10;;;;;;;;;;6231873;28;20414;-87
2021/09/15 13:25:13;;;;;;;6.10;4.53;;;;;;;;;;6238164;28;20471;-89
2021/09/15 13:28:14;;;;;;;7.95;5.10;;;20.70;99.90;;;;;;6231939;28;20132;-88
2021/09/15 13:31:15;;;;;;;7.70;5.25;;;;;;;;;;6211831;28;20043;-90
2021/09/15 13:34:18;;;;;;;7.63;4.85;;;;;;;;;;6245723;28;20033;-89
2021/09/15 13:37:18;;;;;;;8.13;5.00;;;20.30;99.90;;;;;;6228567;28;20032;-88
2021/09/15 13:40:19;;;;;;;7.45;5.13;;;20.50;99.90;;;;;;6218105;28;20029;-88
2021/09/15 13:43:20;;;;;;;6.63;5.43;;;;;;;;;;6214850;28;20025;-89
2021/09/15 13:46:20;;;;;;;12.18;5.45;;;20.40;99.90;;;;;;6229383;28;20053;-87
2021/09/15 13:49:22;;;;;;;8.65;5.10;;;;;;;;;;6214355;28;20456;-88
2021/09/15 13:52:58;;;;;;;5.45;4.53;;;20.60;99.90;;;;;;6229862;28;20029;-91
2021/09/15 13:55:59;;;;;;;5.93;5.22;;;;;;;;;;6229879;28;20044;-88
2021/09/15 13:59:35;;;;;;;5.80;4.90;;;20.90;99.90;;;;;;6232070;28;20021;-90
2021/09/15 14:02:43;;;;;;;5.65;5.07;;;21.10;99.90;;;;;;6138073;28;20050;-89
2021/09/15 14:05:58;;;;;;;6.95;4.93;;;20.80;99.90;;;;;;6222873;28;20025;-89
2021/09/15 14:17:40;;;;;;;7.05;5.25;;;20.70;99.90;;;;;;6121936;29;20040;-87
2021/09/15 14:21:15;;;;;;;6.75;5.43;;;20.60;99.90;;;;;;6094106;29;20534;-90
2021/09/15 14:24:48;;;;;;;7.10;5.35;;;20.50;99.90;;;;;;6086408;29;20028;-91
2021/09/15 14:31:53;;;;;;;6.50;5.50;;;20.20;99.90;;;;;;6034704;29;20056;-93
2021/09/15 14:45:30;;;;;;;8.50;5.80;;;20.10;99.90;;;;;;7573591;22;20358;-93
2021/09/15 14:48:31;;;;;;;6.88;5.65;;;20.20;99.90;;;;;;6280803;28;20060;-90
2021/09/15 14:51:32;;;;;;;6.53;5.68;;;20.20;99.90;;;;;;6299502;28;20562;-89
2021/09/15 14:54:33;;;;;;;9.02;6.05;;;;;;;;;;6294684;28;20036;-89
2021/09/15 14:57:34;;;;;;;13.68;5.82;;;20.20;99.90;;;;;;6301280;28;20063;-89
2021/09/15 16:07:19;;;;;;;2.95;2.58;;;20.40;99.90;;;;;;6679887;22;20068;-86
2021/09/15 16:10:20;;;;;;;3.35;2.70;;;;;;;;;;6239197;28;20037;-90
2021/09/15 16:13:21;;;;;;;3.17;2.70;;;20.30;99.90;;;;;;6248168;28;20029;-85
2021/09/15 16:16:22;;;;;;;3.80;3.00;;;;;;;;;;6241585;28;20044;-87
2021/09/15 16:19:22;;;;;;;3.03;2.53;;;20.20;99.90;;;;;;6254821;28;20373;-86
2021/09/15 16:22:29;;;;;;;2.95;2.65;;;20.10;99.90;;;;;;6222701;28;20029;-93
2021/09/15 16:25:30;;;;;;;3.10;2.72;;;21.50;99.90;;;;;;6242634;28;20036;-91
2021/09/15 16:28:33;;;;;;;2.95;2.70;;;;;;;;;;6235954;28;20627;-88
2021/09/15 16:31:34;;;;;;;4.30;2.90;;;20.10;99.90;;;;;;6256627;28;20051;-87
2021/09/15 16:34:35;;;;;;;4.88;3.10;;;;;;;;;;6231249;28;20033;-90
2021/09/15 16:37:36;;;;;;;3.38;2.40;;;19.90;99.90;;;;;;6245539;28;20440;-85
2021/09/15 16:40:36;;;;;;;3.90;2.90;;;19.70;99.90;;;;;;6240186;28;20025;-89
2021/09/15 16:43:37;;;;;;;5.47;2.83;;;19.80;99.90;;;;;;6257007;28;20068;-83
2021/09/15 16:46:39;;;;;;;6.07;2.85;;;;;;;;;;6275807;28;20111;-88
2021/09/15 16:49:39;;;;;;;2.85;2.55;;;19.80;99.90;;;;;;6236234;28;20093;-90
2021/09/15 16:52:44;;;;;;;3.60;2.50;;;19.40;99.90;;;;;;6220285;28;20041;-91
2021/09/15 16:55:45;;;;;;;3.70;2.60;;;19.50;99.90;;;;;;6222621;28;20046;-88
2021/09/15 16:58:48;;;;;;;4.35;2.33;;;19.50;99.90;;;;;;6220304;28;20042;-80
2021/09/15 17:01:49;;;;;;;4.13;2.40;;;19.60;99.90;;;;;;6202705;28;20052;-81
2021/09/15 17:04:49;;;;;;;5.72;2.90;;;19.40;99.90;;;;;;6228592;28;20033;-83
2021/09/15 17:07:50;;;;;;;5.80;3.20;;;;;;;;;;6211288;28;20088;-84
2021/09/15 17:10:51;;;;;;;3.63;2.60;;;19.50;99.90;;;;;;6212211;28;20049;-83
2021/09/15 17:13:51;;;;;;;3.42;2.60;;;19.00;99.90;;;;;;6192423;28;20041;-83
2021/09/15 17:16:52;;;;;;;4.60;3.05;;;19.10;99.90;;;;;;6220310;28;20068;-87
2021/09/15 17:19:52;;;;;;;5.70;3.22;;;19.00;99.90;;;;;;6213322;28;20045;-84
2021/09/15 17:22:53;;;;;;;3.65;2.55;;;18.90;99.90;;;;;;6225253;28;20518;-82
2021/09/15 17:25:54;;;;;;;4.05;2.88;;;18.80;99.90;;;;;;6232380;28;20044;-83
2021/09/15 17:28:55;;;;;;;5.82;4.22;;;;;;;;;;6241957;28;20052;-82
2021/09/15 17:31:55;;;;;;;5.32;3.65;;;18.60;99.90;;;;;;6274812;28;20032;-83
2021/09/15 17:34:56;;;;;;;4.57;2.80;;;18.50;99.90;;;;;;6234752;28;20047;-82
2021/09/15 17:37:56;;;;;;;3.10;2.80;;;18.00;99.90;;;;;;6242484;28;20050;-83
2021/09/15 17:40:57;;;;;;;4.40;2.75;;;18.00;99.90;;;;;;6234342;28;20025;-82
2021/09/15 17:43:58;;;;;;;5.00;3.03;;;;;;;;;;6265740;28;20032;-82
2021/09/15 17:46:59;;;;;;;5.10;2.75;;;17.90;99.90;;;;;;6271811;28;20016;-86
2021/09/15 17:50:00;;;;;;;19.30;17.38;;;;;;;;;;6265919;28;20635;-82
2021/09/15 17:53:02;;;;;;;11.75;4.20;;;;;;;;;;6257676;28;20040;-83
2021/09/15 17:56:03;;;;;;;10.05;3.53;;;;;;;;;;6271013;28;20024;-83
2021/09/15 17:59:04;;;;;;;5.03;3.00;;;;;;;;;;6249928;28;20459;-82
2021/09/15 18:02:05;;;;;;;3.85;2.60;;;;;;;;;;6288569;28;20047;-84
2021/09/15 18:05:13;;;;;;;3.42;2.80;;;17.50;99.90;;;;;;6274054;28;20029;-83
2021/09/15 18:08:14;;;;;;;4.10;2.92;;;;;;;;;;6260189;28;20048;-82
2021/09/15 18:11:15;;;;;;;11.38;4.50;;;17.70;99.90;;;;;;6278174;28;20048;-83
2021/09/15 18:14:16;;;;;;;3.25;2.95;;;;;;;;;;6275958;28;20432;-82
2021/09/15 18:17:17;;;;;;;4.25;2.53;;;;;;;;;;6260368;28;20459;-84
2021/09/15 18:20:18;;;;;;;3.72;2.60;;;17.80;99.90;;;;;;6274610;28;20579;-85